createdAt,value
2023-01-29T00:00:00.605Z,83
2023-01-29T00:05:12.943Z,83
2023-01-29T00:10:00.568Z,83
2023-01-29T00:15:00.590Z,83
2023-01-29T00:20:00.643Z,83
2023-01-29T00:25:00.616Z,83
2023-01-29T00:30:00.669Z,83
2023-01-29T00:35:00.570Z,83
2023-01-29T00:40:00.585Z,83
2023-01-29T00:45:00.669Z,83
2023-01-29T00:50:00.619Z,83
2023-01-29T00:55:00.622Z,83
2023-01-29T01:00:00.696Z,83
2023-01-29T01:05:00.556Z,83
2023-01-29T01:10:00.701Z,83
2023-01-29T01:15:00.637Z,83
2023-01-29T01:20:00.719Z,83
2023-01-29T01:25:00.575Z,83
2023-01-29T01:30:00.681Z,83
2023-01-29T01:35:00.604Z,83
2023-01-29T01:40:00.599Z,83
2023-01-29T01:45:00.629Z,83
2023-01-29T01:50:00.578Z,83
2023-01-29T01:55:00.660Z,83
2023-01-29T02:00:00.598Z,83
2023-01-29T02:05:00.633Z,83
2023-01-29T02:10:00.622Z,83
2023-01-29T02:15:00.689Z,83
2023-01-29T02:20:00.597Z,83
2023-01-29T02:25:00.658Z,84
2023-01-29T02:30:00.693Z,83
2023-01-29T02:35:00.580Z,83
2023-01-29T02:40:00.591Z,84
2023-01-29T02:45:00.641Z,84
2023-01-29T02:50:00.636Z,84
2023-01-29T02:55:00.645Z,84
2023-01-29T03:00:00.575Z,84
2023-01-29T03:05:00.589Z,84
2023-01-29T03:10:00.656Z,84
2023-01-29T03:15:01.537Z,84
2023-01-29T03:20:00.601Z,84
2023-01-29T03:25:00.678Z,83
2023-01-29T03:30:00.633Z,84
2023-01-29T03:35:00.617Z,84
2023-01-29T03:40:00.651Z,84
2023-01-29T03:45:00.611Z,84
2023-01-29T03:50:00.587Z,84
2023-01-29T03:55:00.693Z,84
2023-01-29T04:00:00.647Z,84
2023-01-29T04:05:00.711Z,84
2023-01-29T04:10:00.750Z,84
2023-01-29T04:15:00.560Z,84
2023-01-29T04:20:00.718Z,84
2023-01-29T04:25:00.721Z,84
2023-01-29T04:30:00.639Z,84
2023-01-29T04:35:00.590Z,84
2023-01-29T04:40:00.642Z,84
2023-01-29T04:45:00.593Z,84
2023-01-29T04:50:00.624Z,84
2023-01-29T04:55:00.608Z,84
2023-01-29T05:00:00.639Z,84
2023-01-29T05:05:00.695Z,84
2023-01-29T05:10:00.659Z,84
2023-01-29T05:15:00.627Z,84
2023-01-29T05:20:00.801Z,83
2023-01-29T05:25:00.680Z,83
2023-01-29T05:30:00.822Z,84
2023-01-29T05:35:00.671Z,84
2023-01-29T05:40:00.650Z,84
2023-01-29T05:45:00.657Z,84
2023-01-29T05:50:00.569Z,84
2023-01-29T05:55:00.615Z,84
2023-01-29T06:00:00.616Z,84
2023-01-29T06:05:00.596Z,84
2023-01-29T06:10:00.674Z,84
2023-01-29T06:15:00.680Z,84
2023-01-29T06:20:00.586Z,84
2023-01-29T06:25:00.664Z,84
2023-01-29T06:30:00.644Z,83
2023-01-29T06:35:00.625Z,83
2023-01-29T06:40:00.615Z,83
2023-01-29T06:45:00.621Z,83
2023-01-29T06:50:00.571Z,83
2023-01-29T06:55:00.642Z,83
2023-01-29T07:00:00.643Z,83
2023-01-29T07:05:00.592Z,83
2023-01-29T07:10:00.599Z,83
2023-01-29T07:15:00.707Z,83
2023-01-29T07:20:00.655Z,82
2023-01-29T07:25:00.829Z,83
2023-01-29T07:30:00.613Z,83
2023-01-29T07:35:00.662Z,82
2023-01-29T07:40:00.644Z,83
2023-01-29T07:45:00.717Z,82
2023-01-29T07:50:00.626Z,82
2023-01-29T07:55:00.813Z,82
2023-01-29T08:00:00.667Z,82
2023-01-29T08:05:00.639Z,82
2023-01-29T08:10:00.725Z,82
2023-01-29T08:15:00.712Z,82
2023-01-29T08:20:00.769Z,81
2023-01-29T08:25:08.284Z,81
2023-01-29T08:30:00.684Z,81
2023-01-29T08:35:00.716Z,81
2023-01-29T08:40:00.632Z,80
2023-01-29T08:45:00.624Z,80
2023-01-29T08:50:00.679Z,80
2023-01-29T08:55:01.166Z,80
2023-01-29T09:00:00.749Z,80
2023-01-29T09:05:00.888Z,79
2023-01-29T09:10:00.583Z,79
2023-01-29T09:15:00.558Z,79
2023-01-29T09:20:00.679Z,79
2023-01-29T09:25:00.615Z,78
2023-01-29T09:30:00.646Z,78
2023-01-29T09:35:00.841Z,79
2023-01-29T09:40:00.634Z,78
2023-01-29T09:45:00.900Z,78
2023-01-29T09:50:00.590Z,78
2023-01-29T09:55:00.594Z,78
2023-01-29T10:00:00.699Z,78
2023-01-29T10:05:00.611Z,78
2023-01-29T10:10:00.741Z,77
2023-01-29T10:15:00.648Z,77
2023-01-29T10:20:00.687Z,77
2023-01-29T10:25:01.234Z,78
2023-01-29T10:30:00.722Z,77
2023-01-29T10:35:00.826Z,77
2023-01-29T10:40:00.571Z,77
2023-01-29T10:45:00.820Z,77
2023-01-29T10:50:00.768Z,77
2023-01-29T10:55:00.926Z,77
2023-01-29T11:00:00.694Z,77
2023-01-29T11:05:00.846Z,77
2023-01-29T11:10:01.214Z,77
2023-01-29T11:15:00.881Z,77
2023-01-29T11:20:00.618Z,78
2023-01-29T11:25:00.643Z,78
2023-01-29T11:30:00.842Z,78
2023-01-29T11:35:00.833Z,78
2023-01-29T11:40:00.840Z,78
2023-01-29T11:45:00.708Z,78
2023-01-29T11:50:00.783Z,78
2023-01-29T11:55:00.826Z,78
2023-01-29T12:00:00.868Z,78
2023-01-29T12:05:00.690Z,79
2023-01-29T12:10:00.828Z,79
2023-01-29T12:15:00.709Z,79
2023-01-29T12:20:00.617Z,80
2023-01-29T12:25:00.584Z,80
2023-01-29T12:30:00.687Z,80
2023-01-29T12:35:00.869Z,81
2023-01-29T12:40:00.666Z,81
2023-01-29T12:45:00.668Z,82
2023-01-29T12:50:00.637Z,83
2023-01-29T12:55:00.636Z,84
2023-01-29T13:00:00.722Z,84
2023-01-29T13:05:00.671Z,84
2023-01-29T13:10:00.718Z,85
2023-01-29T13:15:00.747Z,85
2023-01-29T13:20:00.626Z,85
2023-01-29T13:25:05.030Z,85
2023-01-29T13:30:00.574Z,85
2023-01-29T13:35:00.613Z,85
2023-01-29T13:40:00.668Z,84
2023-01-29T13:45:00.667Z,84
2023-01-29T13:50:00.602Z,84
2023-01-29T13:55:00.580Z,83
2023-01-29T14:00:00.768Z,83
2023-01-29T14:05:00.800Z,82
2023-01-29T14:10:00.839Z,82
2023-01-29T14:15:00.621Z,82
2023-01-29T14:20:00.661Z,82
2023-01-29T14:25:00.722Z,81
2023-01-29T14:30:00.743Z,81
2023-01-29T14:35:00.673Z,81
2023-01-29T14:40:00.735Z,81
2023-01-29T14:45:00.653Z,81
2023-01-29T14:50:00.672Z,81
2023-01-29T14:55:00.779Z,81
2023-01-29T15:00:00.679Z,81
2023-01-29T15:05:00.671Z,80
2023-01-29T15:15:00.689Z,80
2023-01-29T15:20:00.637Z,80
2023-01-29T15:25:00.616Z,80
2023-01-29T15:30:00.597Z,80
2023-01-29T15:35:00.612Z,80
2023-01-29T15:40:00.706Z,80
2023-01-29T15:45:00.584Z,80
2023-01-29T15:50:00.693Z,80
2023-01-29T15:55:00.587Z,80
2023-01-29T16:00:00.765Z,80
2023-01-29T16:05:00.581Z,81
2023-01-29T16:10:00.779Z,81
2023-01-29T16:15:00.590Z,81
2023-01-29T16:20:00.693Z,81
2023-01-29T16:25:00.660Z,81
2023-01-29T16:30:00.721Z,82
2023-01-29T16:35:00.666Z,83
2023-01-29T16:40:00.624Z,83
2023-01-29T16:45:00.779Z,84
2023-01-29T16:50:00.826Z,85
2023-01-29T16:55:00.624Z,85
2023-01-29T17:00:00.688Z,87
2023-01-29T17:05:00.610Z,87
2023-01-29T17:10:00.719Z,87
2023-01-29T17:15:00.672Z,87
2023-01-29T17:20:00.628Z,86
2023-01-29T17:25:00.596Z,86
2023-01-29T17:30:02.973Z,86
2023-01-29T17:35:00.759Z,86
2023-01-29T17:40:00.766Z,87
2023-01-29T17:45:00.701Z,87
2023-01-29T17:50:00.610Z,87
2023-01-29T17:55:00.836Z,87
2023-01-29T18:00:00.777Z,87
2023-01-29T18:05:00.624Z,87
2023-01-29T18:10:00.687Z,87
2023-01-29T18:15:01.365Z,87
2023-01-29T18:20:00.632Z,87
2023-01-29T18:25:00.613Z,87
2023-01-29T18:30:00.836Z,87
2023-01-29T18:35:01.443Z,86
2023-01-29T18:40:00.655Z,86
2023-01-29T18:45:00.642Z,86
2023-01-29T18:50:01.265Z,86
2023-01-29T18:55:00.866Z,86
2023-01-29T19:00:00.658Z,86
2023-01-29T19:05:01.186Z,86
2023-01-29T19:10:00.601Z,86
2023-01-29T19:15:00.746Z,86
2023-01-29T19:20:00.581Z,86
2023-01-29T19:25:00.624Z,85
2023-01-29T19:30:00.897Z,85
2023-01-29T19:35:01.099Z,85
2023-01-29T19:40:00.645Z,85
2023-01-29T19:45:00.605Z,85
2023-01-29T19:50:00.774Z,85
2023-01-29T19:55:00.601Z,85
2023-01-29T20:00:01.488Z,85
2023-01-29T20:05:00.769Z,85
2023-01-29T20:10:00.619Z,85
2023-01-29T20:15:00.615Z,85
2023-01-29T20:20:00.602Z,86
2023-01-29T20:25:00.593Z,86
2023-01-29T20:30:00.803Z,86
2023-01-29T20:35:00.593Z,86
2023-01-29T20:40:00.589Z,86
2023-01-29T20:45:00.769Z,86
2023-01-29T20:50:00.612Z,86
2023-01-29T20:55:00.687Z,86
2023-01-29T21:00:01.188Z,87
2023-01-29T21:05:01.293Z,87
2023-01-29T21:10:00.654Z,87
2023-01-29T21:15:00.651Z,87
2023-01-29T21:20:00.887Z,87
2023-01-29T21:25:00.590Z,87
2023-01-29T21:30:00.654Z,87
2023-01-29T21:35:00.882Z,87
2023-01-29T21:40:00.703Z,88
2023-01-29T21:45:00.638Z,88
2023-01-29T21:50:00.643Z,88
2023-01-29T21:55:00.700Z,88
2023-01-29T22:00:00.606Z,88
2023-01-29T22:05:16.368Z,88
2023-01-29T22:10:00.585Z,88
2023-01-29T22:15:00.660Z,88
2023-01-29T22:20:00.607Z,88
2023-01-29T22:25:01.097Z,89
2023-01-29T22:30:02.000Z,89
2023-01-29T22:35:01.647Z,89
2023-01-29T22:40:00.586Z,89
2023-01-29T22:45:00.748Z,89
2023-01-29T22:50:01.958Z,89
2023-01-29T22:55:01.132Z,89
2023-01-29T23:00:01.621Z,89
2023-01-29T23:05:00.902Z,90
2023-01-29T23:10:00.834Z,90
2023-01-29T23:15:00.810Z,90
2023-01-29T23:20:01.275Z,90
2023-01-29T23:25:00.809Z,90
2023-01-29T23:30:00.695Z,90
2023-01-29T23:35:00.805Z,90
2023-01-29T23:40:00.788Z,90
2023-01-29T23:45:01.323Z,90
2023-01-29T23:50:01.170Z,90
2023-01-29T23:55:00.779Z,91
